sensor_id;sensor_type;location;lat;lon;timestamp;P1;durP1;ratioP1;P2;durP2;ratioP2
4748;SDS011;2388;53.582;9.962;2022-08-30T00:00:07;2.83;;;0.93;;
4748;SDS011;2388;53.582;9.962;2022-08-30T00:02:53;4.07;;;1.10;;
4748;SDS011;2388;53.582;9.962;2022-08-30T00:05:19;3.53;;;1.03;;
4748;SDS011;2388;53.582;9.962;2022-08-30T00:07:45;1.10;;;0.80;;
4748;SDS011;2388;53.582;9.962;2022-08-30T00:10:10;2.50;;;0.70;;
4748;SDS011;2388;53.582;9.962;2022-08-30T00:12:36;1.20;;;0.90;;
4748;SDS011;2388;53.582;9.962;2022-08-30T00:15:03;3.33;;;1.00;;
4748;SDS011;2388;53.582;9.962;2022-08-30T00:17:31;2.50;;;0.80;;
4748;SDS011;2388;53.582;9.962;2022-08-30T00:19:57;1.37;;;0.60;;
4748;SDS011;2388;53.582;9.962;2022-08-30T00:22:22;1.83;;;1.00;;
4748;SDS011;2388;53.582;9.962;2022-08-30T00:24:48;2.03;;;1.20;;
4748;SDS011;2388;53.582;9.962;2022-08-30T00:27:13;2.07;;;0.80;;
4748;SDS011;2388;53.582;9.962;2022-08-30T00:29:39;1.00;;;0.60;;
4748;SDS011;2388;53.582;9.962;2022-08-30T00:32:05;2.17;;;1.00;;
4748;SDS011;2388;53.582;9.962;2022-08-30T00:34:31;1.83;;;1.00;;
4748;SDS011;2388;53.582;9.962;2022-08-30T00:36:58;1.73;;;0.93;;
4748;SDS011;2388;53.582;9.962;2022-08-30T00:39:24;5.30;;;1.03;;
4748;SDS011;2388;53.582;9.962;2022-08-30T00:41:49;2.60;;;0.80;;
4748;SDS011;2388;53.582;9.962;2022-08-30T00:44:15;1.10;;;0.73;;
4748;SDS011;2388;53.582;9.962;2022-08-30T00:46:41;1.47;;;0.80;;
4748;SDS011;2388;53.582;9.962;2022-08-30T00:49:07;1.23;;;1.07;;
4748;SDS011;2388;53.582;9.962;2022-08-30T00:51:36;3.53;;;0.90;;
4748;SDS011;2388;53.582;9.962;2022-08-30T00:54:03;1.80;;;1.00;;
4748;SDS011;2388;53.582;9.962;2022-08-30T00:56:29;1.77;;;0.90;;
4748;SDS011;2388;53.582;9.962;2022-08-30T00:58:56;1.23;;;0.90;;
4748;SDS011;2388;53.582;9.962;2022-08-30T01:01:24;5.73;;;1.13;;
4748;SDS011;2388;53.582;9.962;2022-08-30T01:03:51;1.57;;;0.93;;
4748;SDS011;2388;53.582;9.962;2022-08-30T01:06:17;0.93;;;0.80;;
4748;SDS011;2388;53.582;9.962;2022-08-30T01:08:43;2.00;;;1.00;;
4748;SDS011;2388;53.582;9.962;2022-08-30T01:11:11;0.83;;;0.67;;
4748;SDS011;2388;53.582;9.962;2022-08-30T01:13:40;1.60;;;1.00;;
4748;SDS011;2388;53.582;9.962;2022-08-30T01:16:06;1.40;;;0.80;;
4748;SDS011;2388;53.582;9.962;2022-08-30T01:18:32;0.90;;;0.77;;
4748;SDS011;2388;53.582;9.962;2022-08-30T01:23:43;1.90;;;1.30;;
4748;SDS011;2388;53.582;9.962;2022-08-30T01:26:12;2.90;;;0.70;;
4748;SDS011;2388;53.582;9.962;2022-08-30T01:28:39;1.27;;;0.93;;
4748;SDS011;2388;53.582;9.962;2022-08-30T01:31:05;1.40;;;0.80;;
4748;SDS011;2388;53.582;9.962;2022-08-30T01:33:31;2.03;;;1.00;;
4748;SDS011;2388;53.582;9.962;2022-08-30T01:36:01;1.97;;;0.93;;
4748;SDS011;2388;53.582;9.962;2022-08-30T01:39:03;1.20;;;0.90;;
4748;SDS011;2388;53.582;9.962;2022-08-30T01:41:27;1.20;;;0.73;;
4748;SDS011;2388;53.582;9.962;2022-08-30T01:43:59;1.97;;;0.80;;
4748;SDS011;2388;53.582;9.962;2022-08-30T01:46:27;1.33;;;0.93;;
4748;SDS011;2388;53.582;9.962;2022-08-30T01:49:02;0.90;;;0.77;;
4748;SDS011;2388;53.582;9.962;2022-08-30T01:51:31;2.00;;;0.70;;
4748;SDS011;2388;53.582;9.962;2022-08-30T01:53:57;0.90;;;0.70;;
4748;SDS011;2388;53.582;9.962;2022-08-30T01:56:24;1.17;;;0.70;;
4748;SDS011;2388;53.582;9.962;2022-08-30T01:58:51;1.57;;;1.10;;
4748;SDS011;2388;53.582;9.962;2022-08-30T02:01:18;1.03;;;0.83;;
4748;SDS011;2388;53.582;9.962;2022-08-30T02:03:45;1.33;;;0.80;;
4748;SDS011;2388;53.582;9.962;2022-08-30T02:06:13;2.70;;;0.90;;
4748;SDS011;2388;53.582;9.962;2022-08-30T02:08:40;0.90;;;0.57;;
4748;SDS011;2388;53.582;9.962;2022-08-30T02:11:07;2.87;;;1.10;;
4748;SDS011;2388;53.582;9.962;2022-08-30T02:13:34;1.23;;;0.93;;
4748;SDS011;2388;53.582;9.962;2022-08-30T02:16:01;1.30;;;1.03;;
4748;SDS011;2388;53.582;9.962;2022-08-30T02:18:28;2.27;;;1.13;;
4748;SDS011;2388;53.582;9.962;2022-08-30T02:20:54;1.57;;;0.90;;
4748;SDS011;2388;53.582;9.962;2022-08-30T02:23:19;1.43;;;1.27;;
4748;SDS011;2388;53.582;9.962;2022-08-30T02:25:45;1.00;;;0.70;;
4748;SDS011;2388;53.582;9.962;2022-08-30T02:28:10;5.20;;;0.80;;
4748;SDS011;2388;53.582;9.962;2022-08-30T02:30:37;0.90;;;0.80;;
4748;SDS011;2388;53.582;9.962;2022-08-30T02:33:04;1.07;;;0.60;;
4748;SDS011;2388;53.582;9.962;2022-08-30T02:35:29;1.67;;;0.80;;
4748;SDS011;2388;53.582;9.962;2022-08-30T02:37:55;1.60;;;0.90;;
4748;SDS011;2388;53.582;9.962;2022-08-30T02:40:20;1.50;;;0.70;;
4748;SDS011;2388;53.582;9.962;2022-08-30T02:42:47;1.40;;;0.60;;
4748;SDS011;2388;53.582;9.962;2022-08-30T02:45:13;1.50;;;0.53;;
4748;SDS011;2388;53.582;9.962;2022-08-30T02:47:39;2.70;;;0.77;;
4748;SDS011;2388;53.582;9.962;2022-08-30T02:50:06;1.03;;;0.93;;
4748;SDS011;2388;53.582;9.962;2022-08-30T02:52:33;1.40;;;0.87;;
4748;SDS011;2388;53.582;9.962;2022-08-30T02:55:00;1.10;;;0.87;;
4748;SDS011;2388;53.582;9.962;2022-08-30T02:57:25;1.53;;;1.03;;
4748;SDS011;2388;53.582;9.962;2022-08-30T02:59:51;1.20;;;0.80;;
4748;SDS011;2388;53.582;9.962;2022-08-30T03:02:17;1.23;;;0.80;;
4748;SDS011;2388;53.582;9.962;2022-08-30T03:04:43;1.07;;;0.97;;
4748;SDS011;2388;53.582;9.962;2022-08-30T03:07:09;0.90;;;0.63;;
4748;SDS011;2388;53.582;9.962;2022-08-30T03:09:36;1.37;;;1.00;;
4748;SDS011;2388;53.582;9.962;2022-08-30T03:12:02;1.53;;;0.70;;
4748;SDS011;2388;53.582;9.962;2022-08-30T03:14:29;3.23;;;1.23;;
4748;SDS011;2388;53.582;9.962;2022-08-30T03:16:56;2.03;;;0.80;;
4748;SDS011;2388;53.582;9.962;2022-08-30T03:19:21;1.40;;;0.70;;
4748;SDS011;2388;53.582;9.962;2022-08-30T03:21:47;1.20;;;0.93;;
4748;SDS011;2388;53.582;9.962;2022-08-30T03:24:14;1.77;;;1.00;;
4748;SDS011;2388;53.582;9.962;2022-08-30T03:26:39;1.70;;;0.80;;
4748;SDS011;2388;53.582;9.962;2022-08-30T03:29:05;1.40;;;1.00;;
4748;SDS011;2388;53.582;9.962;2022-08-30T03:31:30;1.80;;;0.90;;
4748;SDS011;2388;53.582;9.962;2022-08-30T03:33:56;3.03;;;1.10;;
4748;SDS011;2388;53.582;9.962;2022-08-30T03:36:21;1.23;;;0.80;;
4748;SDS011;2388;53.582;9.962;2022-08-30T03:38:47;3.40;;;0.83;;
4748;SDS011;2388;53.582;9.962;2022-08-30T03:41:13;1.17;;;1.00;;
4748;SDS011;2388;53.582;9.962;2022-08-30T03:43:40;3.03;;;1.07;;
4748;SDS011;2388;53.582;9.962;2022-08-30T03:46:06;2.27;;;1.10;;
4748;SDS011;2388;53.582;9.962;2022-08-30T03:48:31;1.47;;;1.30;;
4748;SDS011;2388;53.582;9.962;2022-08-30T03:50:57;1.80;;;1.20;;
4748;SDS011;2388;53.582;9.962;2022-08-30T03:53:22;1.53;;;1.10;;
4748;SDS011;2388;53.582;9.962;2022-08-30T03:55:48;1.30;;;0.83;;
4748;SDS011;2388;53.582;9.962;2022-08-30T03:58:13;2.10;;;0.87;;
4748;SDS011;2388;53.582;9.962;2022-08-30T04:00:39;1.00;;;0.90;;
4748;SDS011;2388;53.582;9.962;2022-08-30T04:03:05;5.50;;;0.80;;
4748;SDS011;2388;53.582;9.962;2022-08-30T04:05:30;2.00;;;1.40;;
4748;SDS011;2388;53.582;9.962;2022-08-30T04:07:56;1.67;;;0.97;;
4748;SDS011;2388;53.582;9.962;2022-08-30T04:10:22;1.00;;;0.80;;
4748;SDS011;2388;53.582;9.962;2022-08-30T04:12:48;1.10;;;1.00;;
4748;SDS011;2388;53.582;9.962;2022-08-30T04:15:14;2.47;;;1.30;;
4748;SDS011;2388;53.582;9.962;2022-08-30T04:17:41;1.20;;;0.97;;
4748;SDS011;2388;53.582;9.962;2022-08-30T04:20:07;2.53;;;1.20;;
4748;SDS011;2388;53.582;9.962;2022-08-30T04:22:33;2.60;;;1.10;;
4748;SDS011;2388;53.582;9.962;2022-08-30T04:24:59;2.30;;;1.00;;
4748;SDS011;2388;53.582;9.962;2022-08-30T04:27:24;1.20;;;0.80;;
4748;SDS011;2388;53.582;9.962;2022-08-30T04:29:50;4.13;;;1.30;;
4748;SDS011;2388;53.582;9.962;2022-08-30T04:32:15;1.93;;;1.03;;
4748;SDS011;2388;53.582;9.962;2022-08-30T04:34:41;1.20;;;1.07;;
4748;SDS011;2388;53.582;9.962;2022-08-30T04:37:07;1.33;;;0.83;;
4748;SDS011;2388;53.582;9.962;2022-08-30T04:39:33;1.37;;;1.00;;
4748;SDS011;2388;53.582;9.962;2022-08-30T04:41:58;1.50;;;1.17;;
4748;SDS011;2388;53.582;9.962;2022-08-30T04:44:24;2.33;;;1.00;;
4748;SDS011;2388;53.582;9.962;2022-08-30T04:46:51;3.23;;;1.10;;
4748;SDS011;2388;53.582;9.962;2022-08-30T04:49:17;2.27;;;1.00;;
4748;SDS011;2388;53.582;9.962;2022-08-30T04:51:43;0.90;;;0.90;;
4748;SDS011;2388;53.582;9.962;2022-08-30T04:54:08;2.13;;;1.00;;
4748;SDS011;2388;53.582;9.962;2022-08-30T04:56:34;1.27;;;1.17;;
4748;SDS011;2388;53.582;9.962;2022-08-30T04:58:59;1.10;;;1.03;;
4748;SDS011;2388;53.582;9.962;2022-08-30T05:01:26;3.07;;;1.37;;
4748;SDS011;2388;53.582;9.962;2022-08-30T05:03:53;2.40;;;1.30;;
4748;SDS011;2388;53.582;9.962;2022-08-30T05:06:20;1.53;;;1.20;;
4748;SDS011;2388;53.582;9.962;2022-08-30T05:08:46;3.00;;;1.20;;
4748;SDS011;2388;53.582;9.962;2022-08-30T05:11:12;1.03;;;0.73;;
4748;SDS011;2388;53.582;9.962;2022-08-30T05:13:38;1.87;;;1.20;;
4748;SDS011;2388;53.582;9.962;2022-08-30T05:16:04;2.00;;;1.10;;
4748;SDS011;2388;53.582;9.962;2022-08-30T05:18:32;1.30;;;1.03;;
4748;SDS011;2388;53.582;9.962;2022-08-30T05:21:08;2.80;;;1.43;;
4748;SDS011;2388;53.582;9.962;2022-08-30T05:23:36;1.10;;;1.00;;
4748;SDS011;2388;53.582;9.962;2022-08-30T05:26:06;1.20;;;0.90;;
4748;SDS011;2388;53.582;9.962;2022-08-30T05:28:34;2.10;;;1.03;;
4748;SDS011;2388;53.582;9.962;2022-08-30T05:31:00;1.63;;;1.50;;
4748;SDS011;2388;53.582;9.962;2022-08-30T05:33:26;1.47;;;1.00;;
4748;SDS011;2388;53.582;9.962;2022-08-30T05:35:51;5.80;;;3.10;;
4748;SDS011;2388;53.582;9.962;2022-08-30T05:38:17;2.20;;;1.63;;
4748;SDS011;2388;53.582;9.962;2022-08-30T05:40:42;1.87;;;1.10;;
4748;SDS011;2388;53.582;9.962;2022-08-30T05:43:08;1.67;;;1.00;;
4748;SDS011;2388;53.582;9.962;2022-08-30T05:45:35;0.80;;;0.77;;
4748;SDS011;2388;53.582;9.962;2022-08-30T05:48:01;1.47;;;1.37;;
4748;SDS011;2388;53.582;9.962;2022-08-30T05:50:26;1.00;;;0.77;;
4748;SDS011;2388;53.582;9.962;2022-08-30T05:52:52;1.23;;;1.10;;
4748;SDS011;2388;53.582;9.962;2022-08-30T05:55:17;3.13;;;1.03;;
4748;SDS011;2388;53.582;9.962;2022-08-30T05:57:43;1.47;;;0.70;;
4748;SDS011;2388;53.582;9.962;2022-08-30T06:00:10;1.87;;;1.30;;
4748;SDS011;2388;53.582;9.962;2022-08-30T06:02:39;1.23;;;1.00;;
4748;SDS011;2388;53.582;9.962;2022-08-30T06:05:05;1.63;;;1.00;;
4748;SDS011;2388;53.582;9.962;2022-08-30T06:07:31;1.60;;;1.00;;
4748;SDS011;2388;53.582;9.962;2022-08-30T06:09:57;1.23;;;1.00;;
4748;SDS011;2388;53.582;9.962;2022-08-30T06:12:22;4.03;;;1.37;;
4748;SDS011;2388;53.582;9.962;2022-08-30T06:14:48;1.10;;;1.00;;
4748;SDS011;2388;53.582;9.962;2022-08-30T06:17:14;2.80;;;1.20;;
4748;SDS011;2388;53.582;9.962;2022-08-30T06:19:39;5.13;;;1.67;;
4748;SDS011;2388;53.582;9.962;2022-08-30T06:22:05;1.53;;;1.13;;
4748;SDS011;2388;53.582;9.962;2022-08-30T06:24:30;3.10;;;1.70;;
4748;SDS011;2388;53.582;9.962;2022-08-30T06:26:56;5.63;;;2.80;;
4748;SDS011;2388;53.582;9.962;2022-08-30T06:29:21;5.33;;;3.43;;
4748;SDS011;2388;53.582;9.962;2022-08-30T06:31:47;4.43;;;4.13;;
4748;SDS011;2388;53.582;9.962;2022-08-30T06:34:13;3.63;;;3.33;;
4748;SDS011;2388;53.582;9.962;2022-08-30T06:36:39;3.70;;;3.40;;
4748;SDS011;2388;53.582;9.962;2022-08-30T06:39:05;3.17;;;2.53;;
4748;SDS011;2388;53.582;9.962;2022-08-30T06:41:32;2.00;;;1.90;;
4748;SDS011;2388;53.582;9.962;2022-08-30T06:44:01;3.60;;;2.10;;
4748;SDS011;2388;53.582;9.962;2022-08-30T06:46:30;2.83;;;1.30;;
4748;SDS011;2388;53.582;9.962;2022-08-30T06:48:57;3.57;;;1.20;;
4748;SDS011;2388;53.582;9.962;2022-08-30T06:51:28;2.70;;;1.57;;
4748;SDS011;2388;53.582;9.962;2022-08-30T06:53:56;2.50;;;1.13;;
4748;SDS011;2388;53.582;9.962;2022-08-30T06:56:22;2.70;;;1.30;;
4748;SDS011;2388;53.582;9.962;2022-08-30T06:58:49;2.13;;;1.20;;
4748;SDS011;2388;53.582;9.962;2022-08-30T07:01:20;5.50;;;3.70;;
4748;SDS011;2388;53.582;9.962;2022-08-30T07:03:47;3.40;;;3.20;;
4748;SDS011;2388;53.582;9.962;2022-08-30T07:06:13;4.50;;;4.10;;
4748;SDS011;2388;53.582;9.962;2022-08-30T07:08:40;3.57;;;3.27;;
4748;SDS011;2388;53.582;9.962;2022-08-30T07:11:06;7.67;;;1.50;;
4748;SDS011;2388;53.582;9.962;2022-08-30T07:13:32;2.80;;;2.60;;
4748;SDS011;2388;53.582;9.962;2022-08-30T07:16:07;2.53;;;2.10;;
4748;SDS011;2388;53.582;9.962;2022-08-30T07:18:37;2.03;;;1.37;;
4748;SDS011;2388;53.582;9.962;2022-08-30T07:21:15;1.97;;;1.33;;
4748;SDS011;2388;53.582;9.962;2022-08-30T07:23:46;1.57;;;1.07;;
4748;SDS011;2388;53.582;9.962;2022-08-30T07:26:16;3.23;;;1.10;;
4748;SDS011;2388;53.582;9.962;2022-08-30T07:28:44;1.67;;;1.07;;
4748;SDS011;2388;53.582;9.962;2022-08-30T07:31:13;5.03;;;1.10;;
4748;SDS011;2388;53.582;9.962;2022-08-30T07:33:40;2.17;;;1.37;;
4748;SDS011;2388;53.582;9.962;2022-08-30T07:36:06;2.50;;;1.43;;
4748;SDS011;2388;53.582;9.962;2022-08-30T07:38:31;2.03;;;0.97;;
4748;SDS011;2388;53.582;9.962;2022-08-30T07:40:57;3.00;;;1.10;;
4748;SDS011;2388;53.582;9.962;2022-08-30T07:43:25;3.70;;;0.87;;
4748;SDS011;2388;53.582;9.962;2022-08-30T07:45:54;5.40;;;1.27;;
4748;SDS011;2388;53.582;9.962;2022-08-30T07:48:24;2.13;;;1.40;;
4748;SDS011;2388;53.582;9.962;2022-08-30T07:50:50;3.23;;;1.50;;
4748;SDS011;2388;53.582;9.962;2022-08-30T07:53:15;3.37;;;1.17;;
4748;SDS011;2388;53.582;9.962;2022-08-30T07:55:41;1.50;;;1.27;;
4748;SDS011;2388;53.582;9.962;2022-08-30T07:58:06;2.30;;;1.03;;
4748;SDS011;2388;53.582;9.962;2022-08-30T08:00:32;1.77;;;1.67;;
4748;SDS011;2388;53.582;9.962;2022-08-30T08:02:57;4.40;;;1.10;;
4748;SDS011;2388;53.582;9.962;2022-08-30T08:05:29;4.50;;;1.80;;
4748;SDS011;2388;53.582;9.962;2022-08-30T08:07:54;12.07;;;2.13;;
4748;SDS011;2388;53.582;9.962;2022-08-30T08:10:20;1.73;;;1.40;;
4748;SDS011;2388;53.582;9.962;2022-08-30T08:12:46;1.70;;;1.53;;
4748;SDS011;2388;53.582;9.962;2022-08-30T08:15:12;1.63;;;0.90;;
4748;SDS011;2388;53.582;9.962;2022-08-30T08:17:37;1.90;;;1.07;;
4748;SDS011;2388;53.582;9.962;2022-08-30T08:20:03;1.67;;;0.80;;
4748;SDS011;2388;53.582;9.962;2022-08-30T08:22:29;0.80;;;0.80;;
4748;SDS011;2388;53.582;9.962;2022-08-30T08:24:54;3.17;;;1.00;;
4748;SDS011;2388;53.582;9.962;2022-08-30T08:27:20;2.20;;;1.10;;
4748;SDS011;2388;53.582;9.962;2022-08-30T08:29:45;1.03;;;0.70;;
4748;SDS011;2388;53.582;9.962;2022-08-30T08:32:11;4.73;;;1.27;;
4748;SDS011;2388;53.582;9.962;2022-08-30T08:34:36;1.00;;;0.90;;
4748;SDS011;2388;53.582;9.962;2022-08-30T08:37:02;0.97;;;0.80;;
4748;SDS011;2388;53.582;9.962;2022-08-30T08:39:28;0.93;;;0.73;;
4748;SDS011;2388;53.582;9.962;2022-08-30T08:45:13;1.20;;;0.97;;
4748;SDS011;2388;53.582;9.962;2022-08-30T08:47:53;1.20;;;0.80;;
4748;SDS011;2388;53.582;9.962;2022-08-30T08:50:23;4.60;;;1.90;;
4748;SDS011;2388;53.582;9.962;2022-08-30T08:52:51;2.50;;;2.30;;
4748;SDS011;2388;53.582;9.962;2022-08-30T08:55:39;6.77;;;5.50;;
4748;SDS011;2388;53.582;9.962;2022-08-30T08:58:24;10.83;;;6.70;;
4748;SDS011;2388;53.582;9.962;2022-08-30T09:00:55;9.50;;;2.80;;
4748;SDS011;2388;53.582;9.962;2022-08-30T09:03:23;1.17;;;0.80;;
4748;SDS011;2388;53.582;9.962;2022-08-30T09:05:52;2.00;;;0.80;;
4748;SDS011;2388;53.582;9.962;2022-08-30T09:08:19;1.53;;;0.87;;
4748;SDS011;2388;53.582;9.962;2022-08-30T09:10:59;2.17;;;0.70;;
4748;SDS011;2388;53.582;9.962;2022-08-30T09:13:28;1.47;;;0.70;;
4748;SDS011;2388;53.582;9.962;2022-08-30T09:15:55;1.17;;;1.07;;
4748;SDS011;2388;53.582;9.962;2022-08-30T09:18:40;1.10;;;0.70;;
4748;SDS011;2388;53.582;9.962;2022-08-30T09:21:08;1.90;;;1.80;;
4748;SDS011;2388;53.582;9.962;2022-08-30T09:23:35;1.10;;;1.00;;
4748;SDS011;2388;53.582;9.962;2022-08-30T09:26:01;1.70;;;1.60;;
4748;SDS011;2388;53.582;9.962;2022-08-30T09:28:33;1.20;;;1.10;;
4748;SDS011;2388;53.582;9.962;2022-08-30T09:31:22;0.93;;;0.87;;
4748;SDS011;2388;53.582;9.962;2022-08-30T09:33:53;0.90;;;0.60;;
4748;SDS011;2388;53.582;9.962;2022-08-30T09:36:21;0.60;;;0.53;;
4748;SDS011;2388;53.582;9.962;2022-08-30T09:38:57;5.20;;;0.70;;
4748;SDS011;2388;53.582;9.962;2022-08-30T09:41:27;1.40;;;0.87;;
4748;SDS011;2388;53.582;9.962;2022-08-30T09:44:19;0.93;;;0.57;;
4748;SDS011;2388;53.582;9.962;2022-08-30T09:46:51;1.33;;;0.50;;
4748;SDS011;2388;53.582;9.962;2022-08-30T09:49:41;2.20;;;0.67;;
4748;SDS011;2388;53.582;9.962;2022-08-30T09:55:07;0.90;;;0.90;;
4748;SDS011;2388;53.582;9.962;2022-08-30T10:00:13;1.47;;;0.80;;
4748;SDS011;2388;53.582;9.962;2022-08-30T10:05:31;1.00;;;0.90;;
4748;SDS011;2388;53.582;9.962;2022-08-30T10:08:24;0.93;;;0.50;;
4748;SDS011;2388;53.582;9.962;2022-08-30T10:11:00;1.10;;;1.00;;
4748;SDS011;2388;53.582;9.962;2022-08-30T10:13:36;1.50;;;0.77;;
4748;SDS011;2388;53.582;9.962;2022-08-30T10:16:26;2.30;;;0.70;;
4748;SDS011;2388;53.582;9.962;2022-08-30T10:19:03;1.83;;;0.80;;
4748;SDS011;2388;53.582;9.962;2022-08-30T10:21:50;0.87;;;0.87;;
4748;SDS011;2388;53.582;9.962;2022-08-30T10:24:23;1.27;;;0.93;;
4748;SDS011;2388;53.582;9.962;2022-08-30T10:26:59;1.00;;;0.90;;
4748;SDS011;2388;53.582;9.962;2022-08-30T10:29:35;1.73;;;0.90;;
4748;SDS011;2388;53.582;9.962;2022-08-30T10:37:21;4.73;;;1.20;;
4748;SDS011;2388;53.582;9.962;2022-08-30T10:39:50;4.07;;;0.93;;
4748;SDS011;2388;53.582;9.962;2022-08-30T10:42:20;0.90;;;0.73;;
4748;SDS011;2388;53.582;9.962;2022-08-30T10:44:55;1.27;;;1.03;;
4748;SDS011;2388;53.582;9.962;2022-08-30T10:47:29;1.53;;;0.70;;
4748;SDS011;2388;53.582;9.962;2022-08-30T10:52:40;4.00;;;0.90;;
4748;SDS011;2388;53.582;9.962;2022-08-30T10:55:22;2.13;;;1.00;;
4748;SDS011;2388;53.582;9.962;2022-08-30T10:58:00;3.27;;;1.00;;
4748;SDS011;2388;53.582;9.962;2022-08-30T11:00:34;1.50;;;0.87;;
4748;SDS011;2388;53.582;9.962;2022-08-30T11:06:17;1.33;;;0.90;;
4748;SDS011;2388;53.582;9.962;2022-08-30T11:09:09;1.77;;;0.80;;
4748;SDS011;2388;53.582;9.962;2022-08-30T11:11:49;1.97;;;0.80;;
4748;SDS011;2388;53.582;9.962;2022-08-30T11:14:19;1.70;;;0.80;;
4748;SDS011;2388;53.582;9.962;2022-08-30T11:16:46;0.73;;;0.67;;
4748;SDS011;2388;53.582;9.962;2022-08-30T11:19:24;1.33;;;1.17;;
4748;SDS011;2388;53.582;9.962;2022-08-30T11:22:07;12.33;;;1.20;;
4748;SDS011;2388;53.582;9.962;2022-08-30T11:27:49;5.53;;;1.10;;
4748;SDS011;2388;53.582;9.962;2022-08-30T11:32:59;2.20;;;0.80;;
4748;SDS011;2388;53.582;9.962;2022-08-30T11:35:44;1.10;;;0.90;;
4748;SDS011;2388;53.582;9.962;2022-08-30T11:54:29;1.90;;;0.93;;
4748;SDS011;2388;53.582;9.962;2022-08-30T11:57:03;1.97;;;1.00;;
4748;SDS011;2388;53.582;9.962;2022-08-30T12:05:43;1.40;;;0.83;;
4748;SDS011;2388;53.582;9.962;2022-08-30T12:10:57;1.00;;;0.87;;
4748;SDS011;2388;53.582;9.962;2022-08-30T12:16:03;1.27;;;0.90;;
4748;SDS011;2388;53.582;9.962;2022-08-30T12:18:44;3.63;;;0.93;;
4748;SDS011;2388;53.582;9.962;2022-08-30T12:23:48;2.77;;;1.00;;
4748;SDS011;2388;53.582;9.962;2022-08-30T12:28:51;1.20;;;0.80;;
4748;SDS011;2388;53.582;9.962;2022-08-30T12:31:31;1.13;;;0.80;;
4748;SDS011;2388;53.582;9.962;2022-08-30T12:34:03;0.87;;;0.87;;
4748;SDS011;2388;53.582;9.962;2022-08-30T12:36:33;3.63;;;1.30;;
4748;SDS011;2388;53.582;9.962;2022-08-30T12:39:05;0.60;;;0.50;;
4748;SDS011;2388;53.582;9.962;2022-08-30T12:41:34;1.10;;;0.70;;
4748;SDS011;2388;53.582;9.962;2022-08-30T12:43:59;2.83;;;0.80;;
4748;SDS011;2388;53.582;9.962;2022-08-30T12:46:25;1.83;;;0.90;;
4748;SDS011;2388;53.582;9.962;2022-08-30T12:48:52;1.23;;;0.90;;
4748;SDS011;2388;53.582;9.962;2022-08-30T12:51:28;1.60;;;0.80;;
4748;SDS011;2388;53.582;9.962;2022-08-30T12:54:04;0.87;;;0.77;;
4748;SDS011;2388;53.582;9.962;2022-08-30T12:56:47;1.87;;;0.80;;
4748;SDS011;2388;53.582;9.962;2022-08-30T13:02:19;4.60;;;0.87;;
4748;SDS011;2388;53.582;9.962;2022-08-30T13:04:47;2.63;;;0.60;;
4748;SDS011;2388;53.582;9.962;2022-08-30T13:07:28;3.47;;;0.90;;
4748;SDS011;2388;53.582;9.962;2022-08-30T13:10:02;1.80;;;0.90;;
4748;SDS011;2388;53.582;9.962;2022-08-30T13:12:30;0.77;;;0.70;;
4748;SDS011;2388;53.582;9.962;2022-08-30T13:15:14;5.03;;;0.77;;
4748;SDS011;2388;53.582;9.962;2022-08-30T13:17:41;2.17;;;0.90;;
4748;SDS011;2388;53.582;9.962;2022-08-30T13:22:36;1.97;;;0.67;;
4748;SDS011;2388;53.582;9.962;2022-08-30T13:25:04;1.30;;;0.83;;
4748;SDS011;2388;53.582;9.962;2022-08-30T13:27:32;3.73;;;1.10;;
4748;SDS011;2388;53.582;9.962;2022-08-30T13:30:06;2.70;;;0.80;;
4748;SDS011;2388;53.582;9.962;2022-08-30T13:32:39;1.07;;;0.73;;
4748;SDS011;2388;53.582;9.962;2022-08-30T13:35:06;1.03;;;0.70;;
4748;SDS011;2388;53.582;9.962;2022-08-30T13:37:32;0.90;;;0.80;;
4748;SDS011;2388;53.582;9.962;2022-08-30T13:39:58;1.43;;;1.33;;
4748;SDS011;2388;53.582;9.962;2022-08-30T13:42:24;1.70;;;1.07;;
4748;SDS011;2388;53.582;9.962;2022-08-30T13:44:49;1.10;;;1.00;;
4748;SDS011;2388;53.582;9.962;2022-08-30T13:47:15;4.10;;;1.47;;
4748;SDS011;2388;53.582;9.962;2022-08-30T13:49:42;2.20;;;0.83;;
4748;SDS011;2388;53.582;9.962;2022-08-30T13:52:09;1.83;;;0.97;;
4748;SDS011;2388;53.582;9.962;2022-08-30T13:54:37;2.90;;;0.70;;
4748;SDS011;2388;53.582;9.962;2022-08-30T13:57:03;0.90;;;0.80;;
4748;SDS011;2388;53.582;9.962;2022-08-30T13:59:29;1.03;;;0.60;;
4748;SDS011;2388;53.582;9.962;2022-08-30T14:01:58;2.20;;;0.93;;
4748;SDS011;2388;53.582;9.962;2022-08-30T14:04:25;0.83;;;0.63;;
4748;SDS011;2388;53.582;9.962;2022-08-30T14:06:50;3.40;;;1.20;;
4748;SDS011;2388;53.582;9.962;2022-08-30T14:09:16;0.80;;;0.60;;
4748;SDS011;2388;53.582;9.962;2022-08-30T14:11:41;3.00;;;0.80;;
4748;SDS011;2388;53.582;9.962;2022-08-30T14:14:08;0.90;;;0.73;;
4748;SDS011;2388;53.582;9.962;2022-08-30T14:16:34;2.33;;;0.57;;
4748;SDS011;2388;53.582;9.962;2022-08-30T14:19:02;3.83;;;0.90;;
4748;SDS011;2388;53.582;9.962;2022-08-30T14:21:28;6.27;;;0.93;;
4748;SDS011;2388;53.582;9.962;2022-08-30T14:23:54;5.97;;;0.73;;
4748;SDS011;2388;53.582;9.962;2022-08-30T14:26:23;3.53;;;0.70;;
4748;SDS011;2388;53.582;9.962;2022-08-30T14:28:52;0.90;;;0.60;;
4748;SDS011;2388;53.582;9.962;2022-08-30T14:31:18;0.90;;;0.80;;
4748;SDS011;2388;53.582;9.962;2022-08-30T14:33:43;1.10;;;0.80;;
4748;SDS011;2388;53.582;9.962;2022-08-30T14:36:09;1.83;;;0.80;;
4748;SDS011;2388;53.582;9.962;2022-08-30T14:38:36;0.90;;;0.70;;
4748;SDS011;2388;53.582;9.962;2022-08-30T14:41:03;1.10;;;1.00;;
4748;SDS011;2388;53.582;9.962;2022-08-30T14:43:28;1.40;;;0.87;;
4748;SDS011;2388;53.582;9.962;2022-08-30T14:45:56;2.07;;;0.90;;
4748;SDS011;2388;53.582;9.962;2022-08-30T14:48:22;2.93;;;0.70;;
4748;SDS011;2388;53.582;9.962;2022-08-30T14:50:47;1.70;;;0.50;;
4748;SDS011;2388;53.582;9.962;2022-08-30T14:53:13;2.60;;;0.60;;
4748;SDS011;2388;53.582;9.962;2022-08-30T14:55:38;1.43;;;0.63;;
4748;SDS011;2388;53.582;9.962;2022-08-30T14:58:04;1.30;;;0.53;;
4748;SDS011;2388;53.582;9.962;2022-08-30T15:00:30;1.90;;;0.70;;
4748;SDS011;2388;53.582;9.962;2022-08-30T15:02:56;3.30;;;1.00;;
4748;SDS011;2388;53.582;9.962;2022-08-30T15:05:21;1.73;;;1.30;;
4748;SDS011;2388;53.582;9.962;2022-08-30T15:07:47;6.07;;;0.70;;
4748;SDS011;2388;53.582;9.962;2022-08-30T15:10:17;1.00;;;0.70;;
4748;SDS011;2388;53.582;9.962;2022-08-30T15:12:48;1.70;;;0.70;;
4748;SDS011;2388;53.582;9.962;2022-08-30T15:15:15;3.77;;;2.17;;
4748;SDS011;2388;53.582;9.962;2022-08-30T15:17:46;5.63;;;3.30;;
4748;SDS011;2388;53.582;9.962;2022-08-30T15:20:12;2.80;;;2.40;;
4748;SDS011;2388;53.582;9.962;2022-08-30T15:22:39;2.43;;;1.73;;
4748;SDS011;2388;53.582;9.962;2022-08-30T15:25:05;3.40;;;2.40;;
4748;SDS011;2388;53.582;9.962;2022-08-30T15:27:31;5.10;;;1.97;;
4748;SDS011;2388;53.582;9.962;2022-08-30T15:29:56;3.33;;;1.40;;
4748;SDS011;2388;53.582;9.962;2022-08-30T15:32:22;2.00;;;1.20;;
4748;SDS011;2388;53.582;9.962;2022-08-30T15:34:47;1.30;;;0.90;;
4748;SDS011;2388;53.582;9.962;2022-08-30T15:37:13;1.37;;;1.17;;
4748;SDS011;2388;53.582;9.962;2022-08-30T15:39:46;0.80;;;0.70;;
4748;SDS011;2388;53.582;9.962;2022-08-30T15:42:15;0.90;;;0.70;;
4748;SDS011;2388;53.582;9.962;2022-08-30T15:44:43;4.97;;;2.10;;
4748;SDS011;2388;53.582;9.962;2022-08-30T15:47:09;1.97;;;1.13;;
4748;SDS011;2388;53.582;9.962;2022-08-30T15:49:34;2.03;;;0.97;;
4748;SDS011;2388;53.582;9.962;2022-08-30T15:52:01;1.40;;;0.73;;
4748;SDS011;2388;53.582;9.962;2022-08-30T15:54:28;0.77;;;0.77;;
4748;SDS011;2388;53.582;9.962;2022-08-30T15:56:54;1.23;;;0.73;;
4748;SDS011;2388;53.582;9.962;2022-08-30T15:59:23;1.33;;;0.90;;
4748;SDS011;2388;53.582;9.962;2022-08-30T16:01:49;0.93;;;0.80;;
4748;SDS011;2388;53.582;9.962;2022-08-30T16:04:15;1.10;;;0.60;;
4748;SDS011;2388;53.582;9.962;2022-08-30T16:06:41;1.77;;;0.77;;
4748;SDS011;2388;53.582;9.962;2022-08-30T16:09:06;0.80;;;0.60;;
4748;SDS011;2388;53.582;9.962;2022-08-30T16:11:33;1.40;;;0.90;;
4748;SDS011;2388;53.582;9.962;2022-08-30T16:14:00;1.07;;;0.53;;
4748;SDS011;2388;53.582;9.962;2022-08-30T16:16:27;1.57;;;0.90;;
4748;SDS011;2388;53.582;9.962;2022-08-30T16:18:54;1.30;;;0.80;;
4748;SDS011;2388;53.582;9.962;2022-08-30T16:21:21;1.40;;;0.97;;
4748;SDS011;2388;53.582;9.962;2022-08-30T16:23:52;1.00;;;0.77;;
4748;SDS011;2388;53.582;9.962;2022-08-30T16:26:19;0.80;;;0.70;;
4748;SDS011;2388;53.582;9.962;2022-08-30T16:28:46;1.90;;;0.40;;
4748;SDS011;2388;53.582;9.962;2022-08-30T16:31:13;2.80;;;0.70;;